sensor_id;sensor_type;location;lat;lon;timestamp;temperature;humidity
74489;SHT31;62809;51.090;-115.358;2022-08-19T00:01:55;25.77;36.53
74489;SHT31;62809;51.090;-115.358;2022-08-19T00:04:24;25.80;36.55
74489;SHT31;62809;51.090;-115.358;2022-08-19T00:07:02;25.82;36.51
74489;SHT31;62809;51.090;-115.358;2022-08-19T00:09:32;25.84;36.52
74489;SHT31;62809;51.090;-115.358;2022-08-19T00:11:59;25.85;36.51
74489;SHT31;62809;51.090;-115.358;2022-08-19T00:14:30;25.88;36.52
74489;SHT31;62809;51.090;-115.358;2022-08-19T00:17:00;25.91;36.51
74489;SHT31;62809;51.090;-115.358;2022-08-19T00:19:30;25.92;36.50
74489;SHT31;62809;51.090;-115.358;2022-08-19T00:22:00;25.94;36.50
74489;SHT31;62809;51.090;-115.358;2022-08-19T00:24:28;25.96;36.50
74489;SHT31;62809;51.090;-115.358;2022-08-19T00:27:00;25.98;36.50
74489;SHT31;62809;51.090;-115.358;2022-08-19T00:29:28;25.99;36.49
74489;SHT31;62809;51.090;-115.358;2022-08-19T00:31:59;26.00;36.53
74489;SHT31;62809;51.090;-115.358;2022-08-19T00:34:26;26.03;36.51
74489;SHT31;62809;51.090;-115.358;2022-08-19T00:36:54;26.06;36.51
74489;SHT31;62809;51.090;-115.358;2022-08-19T00:39:25;26.07;36.50
74489;SHT31;62809;51.090;-115.358;2022-08-19T00:41:59;26.08;36.50
74489;SHT31;62809;51.090;-115.358;2022-08-19T00:44:27;26.10;36.50
74489;SHT31;62809;51.090;-115.358;2022-08-19T00:46:57;26.13;36.50
74489;SHT31;62809;51.090;-115.358;2022-08-19T00:52:07;26.15;36.45
74489;SHT31;62809;51.090;-115.358;2022-08-19T00:54:40;26.15;36.45
74489;SHT31;62809;51.090;-115.358;2022-08-19T00:57:15;26.17;36.43
74489;SHT31;62809;51.090;-115.358;2022-08-19T00:59:47;26.19;36.46
74489;SHT31;62809;51.090;-115.358;2022-08-19T01:02:21;26.21;36.45
74489;SHT31;62809;51.090;-115.358;2022-08-19T01:04:51;26.24;36.42
74489;SHT31;62809;51.090;-115.358;2022-08-19T01:07:22;26.25;36.41
74489;SHT31;62809;51.090;-115.358;2022-08-19T01:09:51;26.27;36.40
74489;SHT31;62809;51.090;-115.358;2022-08-19T01:12:19;26.29;36.39
74489;SHT31;62809;51.090;-115.358;2022-08-19T01:14:49;26.31;36.40
74489;SHT31;62809;51.090;-115.358;2022-08-19T01:17:21;26.33;36.40
74489;SHT31;62809;51.090;-115.358;2022-08-19T01:19:49;26.34;36.38
74489;SHT31;62809;51.090;-115.358;2022-08-19T01:25:05;26.36;36.39
74489;SHT31;62809;51.090;-115.358;2022-08-19T01:27:46;26.37;36.39
74489;SHT31;62809;51.090;-115.358;2022-08-19T01:30:18;26.37;36.32
74489;SHT31;62809;51.090;-115.358;2022-08-19T01:32:52;26.37;36.35
74489;SHT31;62809;51.090;-115.358;2022-08-19T01:35:26;26.38;36.34
74489;SHT31;62809;51.090;-115.358;2022-08-19T01:37:58;26.39;36.34
74489;SHT31;62809;51.090;-115.358;2022-08-19T01:40:38;26.39;36.30
74489;SHT31;62809;51.090;-115.358;2022-08-19T01:43:10;26.40;36.30
74489;SHT31;62809;51.090;-115.358;2022-08-19T01:45:38;26.41;36.30
74489;SHT31;62809;51.090;-115.358;2022-08-19T01:48:07;26.42;36.29
74489;SHT31;62809;51.090;-115.358;2022-08-19T01:50:38;26.43;36.27
74489;SHT31;62809;51.090;-115.358;2022-08-19T01:53:06;26.44;36.24
74489;SHT31;62809;51.090;-115.358;2022-08-19T01:55:38;26.45;36.23
74489;SHT31;62809;51.090;-115.358;2022-08-19T01:58:21;26.47;36.22
74489;SHT31;62809;51.090;-115.358;2022-08-19T02:00:55;26.48;36.19
74489;SHT31;62809;51.090;-115.358;2022-08-19T02:03:23;26.50;36.19
74489;SHT31;62809;51.090;-115.358;2022-08-19T02:05:56;26.52;36.18
74489;SHT31;62809;51.090;-115.358;2022-08-19T02:08:29;26.55;36.11
74489;SHT31;62809;51.090;-115.358;2022-08-19T02:10:57;26.56;36.09
74489;SHT31;62809;51.090;-115.358;2022-08-19T02:13:26;26.58;36.06
74489;SHT31;62809;51.090;-115.358;2022-08-19T02:15:57;26.59;36.00
74489;SHT31;62809;51.090;-115.358;2022-08-19T02:18:25;26.60;36.02
74489;SHT31;62809;51.090;-115.358;2022-08-19T02:20:53;26.60;35.99
74489;SHT31;62809;51.090;-115.358;2022-08-19T02:23:21;26.61;35.99
74489;SHT31;62809;51.090;-115.358;2022-08-19T02:25:48;26.60;35.98
74489;SHT31;62809;51.090;-115.358;2022-08-19T02:28:16;26.62;35.95
74489;SHT31;62809;51.090;-115.358;2022-08-19T02:30:46;26.63;35.93
74489;SHT31;62809;51.090;-115.358;2022-08-19T02:33:14;26.64;35.90
74489;SHT31;62809;51.090;-115.358;2022-08-19T02:35:44;26.64;35.86
74489;SHT31;62809;51.090;-115.358;2022-08-19T02:38:13;26.65;35.81
74489;SHT31;62809;51.090;-115.358;2022-08-19T02:41:01;26.66;35.80
74489;SHT31;62809;51.090;-115.358;2022-08-19T02:43:40;26.67;35.78
74489;SHT31;62809;51.090;-115.358;2022-08-19T02:46:13;26.68;35.74
74489;SHT31;62809;51.090;-115.358;2022-08-19T02:48:56;26.69;35.70
74489;SHT31;62809;51.090;-115.358;2022-08-19T02:51:38;26.70;35.68
74489;SHT31;62809;51.090;-115.358;2022-08-19T02:54:13;26.71;35.67
74489;SHT31;62809;51.090;-115.358;2022-08-19T02:56:42;26.71;35.64
74489;SHT31;62809;51.090;-115.358;2022-08-19T02:59:11;26.71;35.63
74489;SHT31;62809;51.090;-115.358;2022-08-19T03:01:39;26.70;35.62
74489;SHT31;62809;51.090;-115.358;2022-08-19T03:04:08;26.70;35.62
74489;SHT31;62809;51.090;-115.358;2022-08-19T03:06:45;26.70;35.60
74489;SHT31;62809;51.090;-115.358;2022-08-19T03:09:16;26.70;35.63
74489;SHT31;62809;51.090;-115.358;2022-08-19T03:11:45;26.69;35.60
74489;SHT31;62809;51.090;-115.358;2022-08-19T03:14:12;26.69;35.60
74489;SHT31;62809;51.090;-115.358;2022-08-19T03:16:58;26.70;35.59
74489;SHT31;62809;51.090;-115.358;2022-08-19T03:19:25;26.70;35.60
74489;SHT31;62809;51.090;-115.358;2022-08-19T03:21:53;26.70;35.60
74489;SHT31;62809;51.090;-115.358;2022-08-19T03:24:21;26.71;35.57
74489;SHT31;62809;51.090;-115.358;2022-08-19T03:26:50;26.70;35.59
74489;SHT31;62809;51.090;-115.358;2022-08-19T03:29:24;26.70;35.52
74489;SHT31;62809;51.090;-115.358;2022-08-19T03:31:54;26.68;35.56
74489;SHT31;62809;51.090;-115.358;2022-08-19T03:34:22;26.66;35.57
74489;SHT31;62809;51.090;-115.358;2022-08-19T03:36:53;26.65;35.56
74489;SHT31;62809;51.090;-115.358;2022-08-19T03:39:24;26.63;35.58
74489;SHT31;62809;51.090;-115.358;2022-08-19T03:41:53;26.63;35.60
74489;SHT31;62809;51.090;-115.358;2022-08-19T03:44:27;26.62;35.60
74489;SHT31;62809;51.090;-115.358;2022-08-19T03:46:59;26.62;35.61
74489;SHT31;62809;51.090;-115.358;2022-08-19T03:49:27;26.62;35.60
74489;SHT31;62809;51.090;-115.358;2022-08-19T03:51:58;26.62;35.60
74489;SHT31;62809;51.090;-115.358;2022-08-19T03:54:26;26.63;35.60
74489;SHT31;62809;51.090;-115.358;2022-08-19T03:56:58;26.62;35.60
74489;SHT31;62809;51.090;-115.358;2022-08-19T03:59:30;26.63;35.61
74489;SHT31;62809;51.090;-115.358;2022-08-19T04:02:02;26.63;35.60
74489;SHT31;62809;51.090;-115.358;2022-08-19T04:04:37;26.62;35.60
74489;SHT31;62809;51.090;-115.358;2022-08-19T04:07:08;26.61;35.64
74489;SHT31;62809;51.090;-115.358;2022-08-19T04:09:42;26.61;35.64
74489;SHT31;62809;51.090;-115.358;2022-08-19T04:12:11;26.60;35.63
74489;SHT31;62809;51.090;-115.358;2022-08-19T04:14:40;26.59;35.66
74489;SHT31;62809;51.090;-115.358;2022-08-19T04:17:07;26.59;35.67
74489;SHT31;62809;51.090;-115.358;2022-08-19T04:19:34;26.58;35.69
74489;SHT31;62809;51.090;-115.358;2022-08-19T04:22:04;26.58;35.69
74489;SHT31;62809;51.090;-115.358;2022-08-19T04:24:42;26.57;35.69
74489;SHT31;62809;51.090;-115.358;2022-08-19T04:27:13;26.56;35.70
74489;SHT31;62809;51.090;-115.358;2022-08-19T04:29:42;26.56;35.70
74489;SHT31;62809;51.090;-115.358;2022-08-19T04:32:10;26.55;35.72
74489;SHT31;62809;51.090;-115.358;2022-08-19T04:34:41;26.55;35.72
74489;SHT31;62809;51.090;-115.358;2022-08-19T04:37:08;26.54;35.71
74489;SHT31;62809;51.090;-115.358;2022-08-19T04:39:38;26.54;35.72
74489;SHT31;62809;51.090;-115.358;2022-08-19T04:42:23;26.53;35.75
74489;SHT31;62809;51.090;-115.358;2022-08-19T04:45:05;26.53;35.76
74489;SHT31;62809;51.090;-115.358;2022-08-19T04:47:41;26.52;35.78
74489;SHT31;62809;51.090;-115.358;2022-08-19T04:50:10;26.51;35.80
74489;SHT31;62809;51.090;-115.358;2022-08-19T04:52:39;26.51;35.80
74489;SHT31;62809;51.090;-115.358;2022-08-19T04:55:09;26.51;35.80
74489;SHT31;62809;51.090;-115.358;2022-08-19T04:57:39;26.51;35.80
74489;SHT31;62809;51.090;-115.358;2022-08-19T05:00:07;26.50;35.80
74489;SHT31;62809;51.090;-115.358;2022-08-19T05:02:37;26.49;35.81
74489;SHT31;62809;51.090;-115.358;2022-08-19T05:05:06;26.49;35.87
74489;SHT31;62809;51.090;-115.358;2022-08-19T05:07:34;26.49;35.87
74489;SHT31;62809;51.090;-115.358;2022-08-19T05:10:03;26.48;35.88
74489;SHT31;62809;51.090;-115.358;2022-08-19T05:12:32;26.48;35.90
74489;SHT31;62809;51.090;-115.358;2022-08-19T05:15:03;26.48;35.90
74489;SHT31;62809;51.090;-115.358;2022-08-19T05:17:34;26.48;35.90
74489;SHT31;62809;51.090;-115.358;2022-08-19T05:20:02;26.48;35.90
74489;SHT31;62809;51.090;-115.358;2022-08-19T05:22:50;26.46;35.90
74489;SHT31;62809;51.090;-115.358;2022-08-19T05:25:19;26.47;35.91
74489;SHT31;62809;51.090;-115.358;2022-08-19T05:27:50;26.45;35.91
74489;SHT31;62809;51.090;-115.358;2022-08-19T05:30:18;26.45;35.92
74489;SHT31;62809;51.090;-115.358;2022-08-19T05:32:46;26.46;35.93
74489;SHT31;62809;51.090;-115.358;2022-08-19T05:35:15;26.45;35.95
74489;SHT31;62809;51.090;-115.358;2022-08-19T05:37:44;26.44;35.99
74489;SHT31;62809;51.090;-115.358;2022-08-19T05:40:13;26.43;35.97
74489;SHT31;62809;51.090;-115.358;2022-08-19T05:42:41;26.43;36.00
74489;SHT31;62809;51.090;-115.358;2022-08-19T05:45:08;26.43;36.00
74489;SHT31;62809;51.090;-115.358;2022-08-19T05:47:37;26.42;36.01
74489;SHT31;62809;51.090;-115.358;2022-08-19T05:50:06;26.42;36.00
74489;SHT31;62809;51.090;-115.358;2022-08-19T05:52:34;26.42;36.00
74489;SHT31;62809;51.090;-115.358;2022-08-19T05:55:04;26.43;36.04
74489;SHT31;62809;51.090;-115.358;2022-08-19T05:57:32;26.43;36.07
74489;SHT31;62809;51.090;-115.358;2022-08-19T05:59:59;26.42;36.06
74489;SHT31;62809;51.090;-115.358;2022-08-19T06:02:30;26.41;36.10
74489;SHT31;62809;51.090;-115.358;2022-08-19T06:04:57;26.41;36.10
74489;SHT31;62809;51.090;-115.358;2022-08-19T06:07:24;26.42;36.09
74489;SHT31;62809;51.090;-115.358;2022-08-19T06:09:51;26.42;36.08
74489;SHT31;62809;51.090;-115.358;2022-08-19T06:12:19;26.43;36.07
74489;SHT31;62809;51.090;-115.358;2022-08-19T06:14:49;26.43;36.10
74489;SHT31;62809;51.090;-115.358;2022-08-19T06:17:18;26.43;36.09
74489;SHT31;62809;51.090;-115.358;2022-08-19T06:19:50;26.43;36.10
74489;SHT31;62809;51.090;-115.358;2022-08-19T06:22:17;26.43;36.10
74489;SHT31;62809;51.090;-115.358;2022-08-19T06:24:45;26.43;36.10
74489;SHT31;62809;51.090;-115.358;2022-08-19T06:27:12;26.43;36.12
74489;SHT31;62809;51.090;-115.358;2022-08-19T06:29:42;26.42;36.17
74489;SHT31;62809;51.090;-115.358;2022-08-19T06:32:12;26.41;36.20
74489;SHT31;62809;51.090;-115.358;2022-08-19T06:34:42;26.40;36.20
74489;SHT31;62809;51.090;-115.358;2022-08-19T06:37:11;26.39;36.21
74489;SHT31;62809;51.090;-115.358;2022-08-19T06:39:39;26.40;36.20
74489;SHT31;62809;51.090;-115.358;2022-08-19T06:42:11;26.39;36.27
74489;SHT31;62809;51.090;-115.358;2022-08-19T06:44:42;26.37;36.26
74489;SHT31;62809;51.090;-115.358;2022-08-19T06:47:18;26.37;36.29
74489;SHT31;62809;51.090;-115.358;2022-08-19T06:49:47;26.35;36.30
74489;SHT31;62809;51.090;-115.358;2022-08-19T06:52:15;26.35;36.30
74489;SHT31;62809;51.090;-115.358;2022-08-19T06:54:42;26.34;36.31
74489;SHT31;62809;51.090;-115.358;2022-08-19T06:57:11;26.33;36.32
74489;SHT31;62809;51.090;-115.358;2022-08-19T06:59:40;26.32;36.35
74489;SHT31;62809;51.090;-115.358;2022-08-19T07:02:08;26.32;36.37
74489;SHT31;62809;51.090;-115.358;2022-08-19T07:04:37;26.31;36.40
74489;SHT31;62809;51.090;-115.358;2022-08-19T07:07:07;26.31;36.39
74489;SHT31;62809;51.090;-115.358;2022-08-19T07:09:41;26.31;36.41
74489;SHT31;62809;51.090;-115.358;2022-08-19T07:12:10;26.29;36.41
74489;SHT31;62809;51.090;-115.358;2022-08-19T07:14:43;26.29;36.41
74489;SHT31;62809;51.090;-115.358;2022-08-19T07:17:13;26.28;36.42
74489;SHT31;62809;51.090;-115.358;2022-08-19T07:19:43;26.27;36.49
74489;SHT31;62809;51.090;-115.358;2022-08-19T07:22:14;26.27;36.50
74489;SHT31;62809;51.090;-115.358;2022-08-19T07:24:43;26.26;36.49
74489;SHT31;62809;51.090;-115.358;2022-08-19T07:27:13;26.25;36.50
74489;SHT31;62809;51.090;-115.358;2022-08-19T07:29:40;26.24;36.50
74489;SHT31;62809;51.090;-115.358;2022-08-19T07:32:07;26.24;36.50
74489;SHT31;62809;51.090;-115.358;2022-08-19T07:34:37;26.23;36.51
74489;SHT31;62809;51.090;-115.358;2022-08-19T07:37:05;26.23;36.53
74489;SHT31;62809;51.090;-115.358;2022-08-19T07:39:33;26.22;36.51
74489;SHT31;62809;51.090;-115.358;2022-08-19T07:42:05;26.22;36.54
74489;SHT31;62809;51.090;-115.358;2022-08-19T07:44:36;26.21;36.55
74489;SHT31;62809;51.090;-115.358;2022-08-19T07:47:05;26.20;36.59
74489;SHT31;62809;51.090;-115.358;2022-08-19T07:49:33;26.20;36.60
74489;SHT31;62809;51.090;-115.358;2022-08-19T07:52:03;26.20;36.59
74489;SHT31;62809;51.090;-115.358;2022-08-19T07:54:34;26.19;36.58
74489;SHT31;62809;51.090;-115.358;2022-08-19T07:57:04;26.18;36.60
74489;SHT31;62809;51.090;-115.358;2022-08-19T07:59:34;26.18;36.60
74489;SHT31;62809;51.090;-115.358;2022-08-19T08:02:02;26.17;36.60
74489;SHT31;62809;51.090;-115.358;2022-08-19T08:04:31;26.16;36.60
74489;SHT31;62809;51.090;-115.358;2022-08-19T08:07:17;26.15;36.59
74489;SHT31;62809;51.090;-115.358;2022-08-19T08:10:07;26.14;36.59
74489;SHT31;62809;51.090;-115.358;2022-08-19T08:12:38;26.13;36.60
74489;SHT31;62809;51.090;-115.358;2022-08-19T08:15:11;26.12;36.60
74489;SHT31;62809;51.090;-115.358;2022-08-19T08:17:42;26.11;36.60
74489;SHT31;62809;51.090;-115.358;2022-08-19T08:20:12;26.10;36.64
74489;SHT31;62809;51.090;-115.358;2022-08-19T08:22:45;26.10;36.62
74489;SHT31;62809;51.090;-115.358;2022-08-19T08:25:34;26.09;36.62
74489;SHT31;62809;51.090;-115.358;2022-08-19T08:28:03;26.08;36.62
74489;SHT31;62809;51.090;-115.358;2022-08-19T08:30:32;26.06;36.66
74489;SHT31;62809;51.090;-115.358;2022-08-19T08:33:01;26.06;36.66
74489;SHT31;62809;51.090;-115.358;2022-08-19T08:35:31;26.05;36.67
74489;SHT31;62809;51.090;-115.358;2022-08-19T08:37:58;26.04;36.66
74489;SHT31;62809;51.090;-115.358;2022-08-19T08:46:06;26.02;36.68
74489;SHT31;62809;51.090;-115.358;2022-08-19T08:48:49;26.01;36.66
74489;SHT31;62809;51.090;-115.358;2022-08-19T08:51:29;26.00;36.67
74489;SHT31;62809;51.090;-115.358;2022-08-19T08:54:07;26.00;36.65
74489;SHT31;62809;51.090;-115.358;2022-08-19T08:56:39;25.99;36.64
74489;SHT31;62809;51.090;-115.358;2022-08-19T09:01:59;25.98;36.64
74489;SHT31;62809;51.090;-115.358;2022-08-19T09:04:27;25.97;36.64
74489;SHT31;62809;51.090;-115.358;2022-08-19T09:09:50;25.94;36.64
74489;SHT31;62809;51.090;-115.358;2022-08-19T09:12:25;25.94;36.63
74489;SHT31;62809;51.090;-115.358;2022-08-19T09:15:16;25.93;36.66
74489;SHT31;62809;51.090;-115.358;2022-08-19T09:17:59;25.92;36.67
74489;SHT31;62809;51.090;-115.358;2022-08-19T09:20:33;25.91;36.62
74489;SHT31;62809;51.090;-115.358;2022-08-19T09:23:01;25.91;36.61
74489;SHT31;62809;51.090;-115.358;2022-08-19T09:25:31;25.89;36.64
74489;SHT31;62809;51.090;-115.358;2022-08-19T09:27:59;25.89;36.64
74489;SHT31;62809;51.090;-115.358;2022-08-19T09:30:30;25.88;36.62
74489;SHT31;62809;51.090;-115.358;2022-08-19T09:33:04;25.88;36.67
74489;SHT31;62809;51.090;-115.358;2022-08-19T09:35:34;25.86;36.62
74489;SHT31;62809;51.090;-115.358;2022-08-19T09:38:03;25.84;36.61
74489;SHT31;62809;51.090;-115.358;2022-08-19T09:40:31;25.84;36.60
74489;SHT31;62809;51.090;-115.358;2022-08-19T09:42:58;25.83;36.60
74489;SHT31;62809;51.090;-115.358;2022-08-19T09:45:28;25.83;36.61
74489;SHT31;62809;51.090;-115.358;2022-08-19T09:47:57;25.82;36.60
74489;SHT31;62809;51.090;-115.358;2022-08-19T09:50:25;25.81;36.62
74489;SHT31;62809;51.090;-115.358;2022-08-19T09:52:54;25.79;36.62
74489;SHT31;62809;51.090;-115.358;2022-08-19T09:55:22;25.77;36.60
74489;SHT31;62809;51.090;-115.358;2022-08-19T09:57:53;25.77;36.60
74489;SHT31;62809;51.090;-115.358;2022-08-19T10:00:22;25.76;36.61
74489;SHT31;62809;51.090;-115.358;2022-08-19T10:02:48;25.76;36.62
74489;SHT31;62809;51.090;-115.358;2022-08-19T10:05:16;25.75;36.61
74489;SHT31;62809;51.090;-115.358;2022-08-19T10:08:04;25.73;36.63
74489;SHT31;62809;51.090;-115.358;2022-08-19T10:10:34;25.72;36.62
74489;SHT31;62809;51.090;-115.358;2022-08-19T10:13:02;25.72;36.60
74489;SHT31;62809;51.090;-115.358;2022-08-19T10:15:29;25.69;36.60
74489;SHT31;62809;51.090;-115.358;2022-08-19T10:17:56;25.69;36.61
74489;SHT31;62809;51.090;-115.358;2022-08-19T10:20:25;25.68;36.63
74489;SHT31;62809;51.090;-115.358;2022-08-19T10:22:55;25.67;36.60
74489;SHT31;62809;51.090;-115.358;2022-08-19T10:25:25;25.66;36.61
74489;SHT31;62809;51.090;-115.358;2022-08-19T10:27:53;25.65;36.60
74489;SHT31;62809;51.090;-115.358;2022-08-19T10:30:21;25.64;36.61
74489;SHT31;62809;51.090;-115.358;2022-08-19T10:32:51;25.62;36.61
74489;SHT31;62809;51.090;-115.358;2022-08-19T10:35:20;25.62;36.61
74489;SHT31;62809;51.090;-115.358;2022-08-19T10:37:47;25.61;36.60
74489;SHT31;62809;51.090;-115.358;2022-08-19T10:40:15;25.59;36.60
74489;SHT31;62809;51.090;-115.358;2022-08-19T10:42:44;25.59;36.60
74489;SHT31;62809;51.090;-115.358;2022-08-19T10:45:12;25.58;36.60
74489;SHT31;62809;51.090;-115.358;2022-08-19T10:47:42;25.56;36.59
74489;SHT31;62809;51.090;-115.358;2022-08-19T10:50:09;25.55;36.59
74489;SHT31;62809;51.090;-115.358;2022-08-19T10:52:55;25.54;36.60
74489;SHT31;62809;51.090;-115.358;2022-08-19T10:55:23;25.52;36.60
74489;SHT31;62809;51.090;-115.358;2022-08-19T10:58:13;25.51;36.58
74489;SHT31;62809;51.090;-115.358;2022-08-19T11:00:56;25.50;36.59
74489;SHT31;62809;51.090;-115.358;2022-08-19T11:03:28;25.47;36.55
74489;SHT31;62809;51.090;-115.358;2022-08-19T11:06:04;25.47;36.57
74489;SHT31;62809;51.090;-115.358;2022-08-19T11:08:35;25.45;36.58
74489;SHT31;62809;51.090;-115.358;2022-08-19T11:11:04;25.43;36.55
74489;SHT31;62809;51.090;-115.358;2022-08-19T11:13:34;25.43;36.53
74489;SHT31;62809;51.090;-115.358;2022-08-19T11:16:07;25.42;36.56
74489;SHT31;62809;51.090;-115.358;2022-08-19T11:18:42;25.40;36.57
74489;SHT31;62809;51.090;-115.358;2022-08-19T11:21:19;25.40;36.55
74489;SHT31;62809;51.090;-115.358;2022-08-19T11:23:50;25.38;36.57
74489;SHT31;62809;51.090;-115.358;2022-08-19T11:26:22;25.37;36.57
74489;SHT31;62809;51.090;-115.358;2022-08-19T11:28:50;25.35;36.53
74489;SHT31;62809;51.090;-115.358;2022-08-19T11:31:21;25.34;36.51
74489;SHT31;62809;51.090;-115.358;2022-08-19T11:33:53;25.33;36.53
74489;SHT31;62809;51.090;-115.358;2022-08-19T11:36:28;25.32;36.54
74489;SHT31;62809;51.090;-115.358;2022-08-19T11:38:57;25.31;36.56
74489;SHT31;62809;51.090;-115.358;2022-08-19T11:41:27;25.29;36.54
74489;SHT31;62809;51.090;-115.358;2022-08-19T11:43:54;25.27;36.55
74489;SHT31;62809;51.090;-115.358;2022-08-19T11:46:22;25.26;36.58
74489;SHT31;62809;51.090;-115.358;2022-08-19T11:48:51;25.25;36.58
74489;SHT31;62809;51.090;-115.358;2022-08-19T11:51:21;25.24;36.56
74489;SHT31;62809;51.090;-115.358;2022-08-19T11:53:53;25.23;36.56
74489;SHT31;62809;51.090;-115.358;2022-08-19T11:56:22;25.22;36.59
74489;SHT31;62809;51.090;-115.358;2022-08-19T11:58:51;25.21;36.58
74489;SHT31;62809;51.090;-115.358;2022-08-19T12:01:20;25.19;36.60
74489;SHT31;62809;51.090;-115.358;2022-08-19T12:03:51;25.19;36.56
74489;SHT31;62809;51.090;-115.358;2022-08-19T12:06:23;25.17;36.57
74489;SHT31;62809;51.090;-115.358;2022-08-19T12:08:55;25.17;36.56
74489;SHT31;62809;51.090;-115.358;2022-08-19T12:11:23;25.16;36.58
74489;SHT31;62809;51.090;-115.358;2022-08-19T12:13:52;25.15;36.57
74489;SHT31;62809;51.090;-115.358;2022-08-19T12:16:27;25.13;36.56
74489;SHT31;62809;51.090;-115.358;2022-08-19T12:18:59;25.11;36.56
74489;SHT31;62809;51.090;-115.358;2022-08-19T12:21:29;25.11;36.57
74489;SHT31;62809;51.090;-115.358;2022-08-19T12:24:04;25.10;36.55
74489;SHT31;62809;51.090;-115.358;2022-08-19T12:26:33;25.09;36.55
74489;SHT31;62809;51.090;-115.358;2022-08-19T12:29:04;25.08;36.51
74489;SHT31;62809;51.090;-115.358;2022-08-19T12:31:35;25.07;36.50
74489;SHT31;62809;51.090;-115.358;2022-08-19T12:34:02;25.05;36.50
74489;SHT31;62809;51.090;-115.358;2022-08-19T12:36:29;25.05;36.51
74489;SHT31;62809;51.090;-115.358;2022-08-19T12:39:00;25.04;36.52
74489;SHT31;62809;51.090;-115.358;2022-08-19T12:41:27;25.03;36.51
74489;SHT31;62809;51.090;-115.358;2022-08-19T12:43:54;25.01;36.50
74489;SHT31;62809;51.090;-115.358;2022-08-19T12:46:21;25.00;36.51
74489;SHT31;62809;51.090;-115.358;2022-08-19T12:48:48;24.99;36.51
74489;SHT31;62809;51.090;-115.358;2022-08-19T12:51:17;24.98;36.50
74489;SHT31;62809;51.090;-115.358;2022-08-19T12:53:48;24.96;36.50
74489;SHT31;62809;51.090;-115.358;2022-08-19T12:56:15;24.94;36.51
74489;SHT31;62809;51.090;-115.358;2022-08-19T12:58:46;24.93;36.52
74489;SHT31;62809;51.090;-115.358;2022-08-19T13:01:13;24.92;36.52
74489;SHT31;62809;51.090;-115.358;2022-08-19T13:03:46;24.92;36.52
74489;SHT31;62809;51.090;-115.358;2022-08-19T13:06:13;24.91;36.51
74489;SHT31;62809;51.090;-115.358;2022-08-19T13:08:41;24.91;36.51
74489;SHT31;62809;51.090;-115.358;2022-08-19T13:11:11;24.90;36.52
74489;SHT31;62809;51.090;-115.358;2022-08-19T13:13:45;24.90;36.53
74489;SHT31;62809;51.090;-115.358;2022-08-19T13:16:17;24.88;36.52
74489;SHT31;62809;51.090;-115.358;2022-08-19T13:18:46;24.88;36.56
74489;SHT31;62809;51.090;-115.358;2022-08-19T13:21:14;24.87;36.54
74489;SHT31;62809;51.090;-115.358;2022-08-19T13:23:45;24.85;36.56
74489;SHT31;62809;51.090;-115.358;2022-08-19T13:26:13;24.84;36.60
74489;SHT31;62809;51.090;-115.358;2022-08-19T13:28:42;24.82;36.60
74489;SHT31;62809;51.090;-115.358;2022-08-19T13:31:29;24.80;36.60
74489;SHT31;62809;51.090;-115.358;2022-08-19T13:34:19;24.78;36.66
74489;SHT31;62809;51.090;-115.358;2022-08-19T13:36:55;24.77;36.70
74489;SHT31;62809;51.090;-115.358;2022-08-19T13:39:24;24.76;36.69
74489;SHT31;62809;51.090;-115.358;2022-08-19T13:41:55;24.74;36.70
74489;SHT31;62809;51.090;-115.358;2022-08-19T13:44:25;24.74;36.72
74489;SHT31;62809;51.090;-115.358;2022-08-19T13:47:01;24.72;36.78
74489;SHT31;62809;51.090;-115.358;2022-08-19T13:49:38;24.71;36.80
74489;SHT31;62809;51.090;-115.358;2022-08-19T13:52:06;24.69;36.80
74489;SHT31;62809;51.090;-115.358;2022-08-19T13:54:34;24.69;36.80
74489;SHT31;62809;51.090;-115.358;2022-08-19T13:57:01;24.68;36.86
74489;SHT31;62809;51.090;-115.358;2022-08-19T13:59:30;24.67;36.88
74489;SHT31;62809;51.090;-115.358;2022-08-19T14:02:01;24.66;36.90
74489;SHT31;62809;51.090;-115.358;2022-08-19T14:04:33;24.66;36.90
74489;SHT31;62809;51.090;-115.358;2022-08-19T14:07:04;24.65;36.91
74489;SHT31;62809;51.090;-115.358;2022-08-19T14:09:33;24.64;36.94
74489;SHT31;62809;51.090;-115.358;2022-08-19T14:12:01;24.63;36.96
74489;SHT31;62809;51.090;-115.358;2022-08-19T14:14:30;24.62;37.00
74489;SHT31;62809;51.090;-115.358;2022-08-19T14:16:57;24.62;37.02
74489;SHT31;62809;51.090;-115.358;2022-08-19T14:19:24;24.61;37.00
74489;SHT31;62809;51.090;-115.358;2022-08-19T14:21:53;24.61;37.05
74489;SHT31;62809;51.090;-115.358;2022-08-19T14:24:25;24.61;37.08
74489;SHT31;62809;51.090;-115.358;2022-08-19T14:26:52;24.60;37.08
74489;SHT31;62809;51.090;-115.358;2022-08-19T14:29:22;24.59;37.10
74489;SHT31;62809;51.090;-115.358;2022-08-19T14:31:50;24.59;37.09
74489;SHT31;62809;51.090;-115.358;2022-08-19T14:34:21;24.59;37.10
74489;SHT31;62809;51.090;-115.358;2022-08-19T14:36:51;24.58;37.10
74489;SHT31;62809;51.090;-115.358;2022-08-19T14:39:19;24.57;37.09
74489;SHT31;62809;51.090;-115.358;2022-08-19T14:41:47;24.56;37.10
74489;SHT31;62809;51.090;-115.358;2022-08-19T14:44:19;24.55;37.10
74489;SHT31;62809;51.090;-115.358;2022-08-19T14:46:48;24.55;37.10
74489;SHT31;62809;51.090;-115.358;2022-08-19T14:49:18;24.54;37.14
74489;SHT31;62809;51.090;-115.358;2022-08-19T14:51:45;24.53;37.14
74489;SHT31;62809;51.090;-115.358;2022-08-19T14:54:14;24.53;37.17
74489;SHT31;62809;51.090;-115.358;2022-08-19T14:56:41;24.53;37.18
74489;SHT31;62809;51.090;-115.358;2022-08-19T14:59:11;24.52;37.21
74489;SHT31;62809;51.090;-115.358;2022-08-19T15:01:38;24.52;37.20
74489;SHT31;62809;51.090;-115.358;2022-08-19T15:04:09;24.51;37.25
74489;SHT31;62809;51.090;-115.358;2022-08-19T15:06:37;24.51;37.30
74489;SHT31;62809;51.090;-115.358;2022-08-19T15:09:11;24.51;37.30
74489;SHT31;62809;51.090;-115.358;2022-08-19T15:11:40;24.50;37.36
74489;SHT31;62809;51.090;-115.358;2022-08-19T15:14:15;24.51;37.40
74489;SHT31;62809;51.090;-115.358;2022-08-19T15:16:42;24.52;37.40
74489;SHT31;62809;51.090;-115.358;2022-08-19T15:19:11;24.52;37.40
74489;SHT31;62809;51.090;-115.358;2022-08-19T15:21:38;24.53;37.40
74489;SHT31;62809;51.090;-115.358;2022-08-19T15:24:05;24.54;37.41
74489;SHT31;62809;51.090;-115.358;2022-08-19T15:26:34;24.55;37.41